KGFK

Grand Forks International Airport

Grand Forks, North Dakota, USA
METAR KGFK 191053Z 35006KT 10SM SCT007 OVC120 08/08 A3007 RMK AO2 SLP186 T00830083
Observed Flight Rules
Sep-19 @ 10:53 UTC (11 minutes ago) Visual Flight Rules
Wind Visibility Clouds
350° at 6 knots 10 miles
  • Scattered at 700' AGL
  • Overcast at 12,000' AGL
Temperatures Readings
Current 8°C / 46°F
Dewpoint 8°C / 46°F
Humidity 100%
Altimeter 30.07" Hg
Pressure 1018.6 hPa
Elevation 258
METAR KGFK 191053Z 35006KT 10SM SCT007 OVC120 08/08 A3007 RMK AO2 SLP186 T00830083
Observed Flight Rules
Sep-19 @ 10:53 UTC
(11 minutes ago)
VFR
Wind Visibility
350° at 6 knots 10 miles
Clouds
  • Scattered at 700' AGL
  • Overcast at 12,000' AGL
Temperature Dewpoint
8°C / 46°F 8°C / 46°F
Humidity Altimeter Pressure
100% 30.07" Hg 1018.6 hPa